Time,TemperatureF,DewpointF,PressureIn,WindDirection,WindDirectionDegrees,WindSpeedMPH,WindSpeedGustMPH,Humidity,HourlyPrecipIn,Conditions,Clouds,dailyrainin,SoftwareType,DateUTC
2013-03-09 00:03:00,33.7,27.5,29.72,North,0,0.0,0.0,78,0.00,,,0.00,WUHU216HW,2013-03-09 09:03:00,
2013-03-09 00:08:00,33.7,27.8,29.72,North,0,0.0,0.0,79,0.00,,,0.00,WUHU216HW,2013-03-09 09:08:00,
2013-03-09 00:13:00,33.7,27.8,29.72,North,0,0.0,0.0,79,0.00,,,0.00,WUHU216HW,2013-03-09 09:13:00,
2013-03-09 00:18:00,33.5,27.6,29.72,North,0,0.0,0.0,79,0.00,,,0.00,WUHU216HW,2013-03-09 09:18:00,
2013-03-09 00:24:00,33.5,27.6,29.72,North,0,0.0,0.0,79,0.00,,,0.00,WUHU216HW,2013-03-09 09:24:00,
2013-03-09 00:29:00,33.5,27.6,29.72,North,0,0.0,0.0,79,0.00,,,0.00,WUHU216HW,2013-03-09 09:29:00,
2013-03-09 00:34:00,33.3,27.5,29.72,North,0,0.0,0.0,79,0.00,,,0.00,WUHU216HW,2013-03-09 09:34:00,
2013-03-09 00:39:00,33.3,27.5,29.72,North,0,0.0,0.0,79,0.00,,,0.00,WUHU216HW,2013-03-09 09:39:00,
2013-03-09 00:44:00,33.3,27.5,29.72,ESE,113,2.5,4.3,79,0.00,,,0.00,WUHU216HW,2013-03-09 09:44:00,
2013-03-09 00:49:00,33.3,27.5,29.73,ESE,113,5.8,5.8,79,0.00,,,0.00,WUHU216HW,2013-03-09 09:49:00,
2013-03-09 00:54:00,33.3,27.5,29.73,East,90,4.7,5.8,79,0.00,,,0.00,WUHU216HW,2013-03-09 09:54:00,
2013-03-09 00:59:00,33.5,27.6,29.72,ESE,113,4.9,5.1,79,0.00,,,0.00,WUHU216HW,2013-03-09 09:59:00,
2013-03-09 01:05:00,33.5,27.6,29.73,ESE,113,5.8,5.8,79,0.00,,,0.00,WUHU216HW,2013-03-09 10:05:00,
2013-03-09 01:10:00,33.5,27.6,29.73,SE,135,2.9,5.8,79,0.00,,,0.00,WUHU216HW,2013-03-09 10:10:00,
2013-03-09 01:15:00,33.5,27.6,29.73,SE,135,2.5,7.8,79,0.00,,,0.00,WUHU216HW,2013-03-09 10:15:00,
2013-03-09 01:20:00,33.7,27.8,29.73,East,90,3.1,7.8,79,0.00,,,0.00,WUHU216HW,2013-03-09 10:20:00,
2013-03-09 01:25:00,33.7,27.8,29.73,ESE,113,2.5,4.7,79,0.00,,,0.00,WUHU216HW,2013-03-09 10:25:00,
2013-03-09 01:30:00,33.7,27.8,29.73,ESE,113,1.8,6.0,79,0.00,,,0.00,WUHU216HW,2013-03-09 10:30:00,
2013-03-09 01:35:00,33.7,27.8,29.73,ESE,113,2.5,6.0,79,0.00,,,0.00,WUHU216HW,2013-03-09 10:35:00,
2013-03-09 01:41:00,33.7,27.8,29.73,SE,135,5.4,5.4,79,0.00,,,0.00,WUHU216HW,2013-03-09 10:41:00,
2013-03-09 01:46:00,33.8,27.9,29.73,SE,135,2.2,5.4,79,0.00,,,0.00,WUHU216HW,2013-03-09 10:46:00,
2013-03-09 01:51:00,34.0,28.1,29.74,SE,135,4.0,5.6,79,0.00,,,0.00,WUHU216HW,2013-03-09 10:51:00,
2013-03-09 01:56:00,33.8,27.9,29.74,SE,135,2.9,5.6,79,0.00,,,0.00,WUHU216HW,2013-03-09 10:56:00,
2013-03-09 02:00:00,33.8,27.6,29.74,SE,135,4.0,5.8,78,0.00,,,0.00,WUHU216HW,2013-03-09 11:00:00,
2013-03-09 02:06:00,33.8,27.9,29.74,SE,135,2.5,5.8,79,0.00,,,0.00,WUHU216HW,2013-03-09 11:06:00,
2013-03-09 02:11:00,33.8,27.9,29.74,SE,135,4.7,5.4,79,0.00,,,0.00,WUHU216HW,2013-03-09 11:11:00,
2013-03-09 02:17:00,34.0,28.1,29.75,SE,135,4.0,5.4,79,0.00,,,0.00,WUHU216HW,2013-03-09 11:17:00,
2013-03-09 02:22:00,33.8,27.9,29.75,SSE,158,2.0,4.3,79,0.00,,,0.00,WUHU216HW,2013-03-09 11:22:00,
2013-03-09 02:27:00,33.8,27.9,29.75,SSE,158,2.7,4.0,79,0.00,,,0.00,WUHU216HW,2013-03-09 11:27:00,
2013-03-09 02:32:00,33.8,27.9,29.75,SE,135,1.1,4.0,79,0.00,,,0.00,WUHU216HW,2013-03-09 11:32:00,
2013-03-09 02:37:00,33.7,27.8,29.75,ESE,113,3.1,4.0,79,0.00,,,0.00,WUHU216HW,2013-03-09 11:37:00,
2013-03-09 02:42:00,33.7,27.8,29.75,ESE,113,3.4,4.0,79,0.00,,,0.00,WUHU216HW,2013-03-09 11:42:00,
2013-03-09 02:47:00,33.7,28.1,29.75,ESE,113,4.7,6.9,80,0.00,,,0.00,WUHU216HW,2013-03-09 11:47:00,
2013-03-09 02:52:00,33.7,27.8,29.75,SSE,158,4.0,6.9,79,0.00,,,0.00,WUHU216HW,2013-03-09 11:52:00,
2013-03-09 02:58:00,33.7,27.8,29.76,South,180,5.1,5.8,79,0.00,,,0.00,WUHU216HW,2013-03-09 11:58:00,
2013-03-09 03:02:00,33.7,27.8,29.76,SE,135,1.8,5.1,79,0.00,,,0.00,WUHU216HW,2013-03-09 12:02:00,
2013-03-09 03:08:00,33.7,27.8,29.76,SE,135,3.1,4.5,79,0.00,,,0.00,WUHU216HW,2013-03-09 12:08:00,
2013-03-09 03:13:00,33.7,27.8,29.76,East,90,3.4,4.5,79,0.00,,,0.00,WUHU216HW,2013-03-09 12:13:00,
2013-03-09 03:18:00,33.5,27.9,29.76,SSE,158,2.2,3.4,80,0.00,,,0.00,WUHU216HW,2013-03-09 12:18:00,
2013-03-09 03:23:00,33.5,27.9,29.76,SE,135,1.8,3.6,80,0.00,,,0.00,WUHU216HW,2013-03-09 12:23:00,
2013-03-09 03:28:00,33.5,27.9,29.76,SE,135,2.5,3.6,80,0.00,,,0.00,WUHU216HW,2013-03-09 12:28:00,
2013-03-09 03:34:00,33.3,27.8,29.76,SSE,158,1.6,3.4,80,0.00,,,0.00,WUHU216HW,2013-03-09 12:34:00,
2013-03-09 03:39:00,33.3,27.8,29.76,SE,135,1.8,2.5,80,0.00,,,0.00,WUHU216HW,2013-03-09 12:39:00,
2013-03-09 03:44:00,33.1,27.6,29.76,SE,135,1.8,2.0,80,0.00,,,0.00,WUHU216HW,2013-03-09 12:44:00,
2013-03-09 03:49:00,32.9,27.5,29.77,ESE,113,1.6,2.5,80,0.00,,,0.00,WUHU216HW,2013-03-09 12:49:00,
2013-03-09 03:54:00,32.8,27.3,29.77,SE,135,1.6,2.5,80,0.00,,,0.00,WUHU216HW,2013-03-09 12:54:00,
2013-03-09 03:59:00,32.8,27.3,29.77,South,180,0.0,2.0,80,0.00,,,0.00,WUHU216HW,2013-03-09 12:59:00,
2013-03-09 04:04:00,32.8,27.5,29.77,SSW,203,0.4,1.1,81,0.00,,,0.00,WUHU216HW,2013-03-09 13:04:00,
2013-03-09 04:10:00,32.6,27.1,29.77,SSW,203,0.4,0.7,80,0.00,,,0.00,WUHU216HW,2013-03-09 13:10:00,
2013-03-09 04:15:00,32.2,27.1,29.77,NE,45,1.8,1.8,81,0.00,,,0.00,WUHU216HW,2013-03-09 13:15:00,
2013-03-09 04:20:00,32.0,26.6,29.77,NE,45,0.9,1.8,80,0.00,,,0.00,WUHU216HW,2013-03-09 13:20:00,
2013-03-09 04:25:00,31.9,26.5,29.77,NE,45,1.1,2.5,80,0.00,,,0.00,WUHU216HW,2013-03-09 13:25:00,
2013-03-09 04:30:00,31.7,26.3,29.78,ENE,68,1.8,2.5,80,0.00,,,0.00,WUHU216HW,2013-03-09 13:30:00,
2013-03-09 04:35:00,31.7,26.6,29.78,ESE,113,1.8,1.8,81,0.00,,,0.00,WUHU216HW,2013-03-09 13:35:00,
2013-03-09 04:40:00,31.7,26.6,29.78,ESE,113,2.0,2.9,81,0.00,,,0.00,WUHU216HW,2013-03-09 13:40:00,
2013-03-09 04:45:00,31.5,26.4,29.78,NE,45,1.3,2.9,81,0.00,,,0.00,WUHU216HW,2013-03-09 13:45:00,
2013-03-09 04:51:00,31.3,26.2,29.78,ESE,113,0.7,2.0,81,0.00,,,0.00,WUHU216HW,2013-03-09 13:51:00,
2013-03-09 04:56:00,31.3,26.2,29.78,East,90,0.9,2.5,81,0.00,,,0.00,WUHU216HW,2013-03-09 13:56:00,
2013-03-09 05:00:00,31.1,26.0,29.78,SE,135,2.0,2.5,81,0.00,,,0.00,WUHU216HW,2013-03-09 14:00:00,
2013-03-09 05:05:00,31.1,26.3,29.78,ESE,113,1.8,2.0,82,0.00,,,0.00,WUHU216HW,2013-03-09 14:05:00,
2013-03-09 05:11:00,30.8,25.9,29.79,SW,225,2.2,3.4,82,0.00,,,0.00,WUHU216HW,2013-03-09 14:11:00,
2013-03-09 05:16:00,30.6,25.7,29.79,WSW,248,1.1,3.6,82,0.00,,,0.00,WUHU216HW,2013-03-09 14:16:00,
2013-03-09 05:21:00,30.4,25.6,29.79,WSW,248,0.2,3.6,82,0.00,,,0.00,WUHU216HW,2013-03-09 14:21:00,
2013-03-09 05:27:00,30.4,25.9,29.80,SW,225,1.8,2.5,83,0.00,,,0.00,WUHU216HW,2013-03-09 14:27:00,
2013-03-09 05:32:00,30.4,25.9,29.79,WSW,248,0.4,2.2,83,0.00,,,0.00,WUHU216HW,2013-03-09 14:32:00,
2013-03-09 05:37:00,30.2,25.8,29.79,SW,225,1.6,1.8,83,0.00,,,0.00,WUHU216HW,2013-03-09 14:37:00,
2013-03-09 05:42:00,30.1,25.6,29.80,SW,225,0.0,1.6,83,0.00,,,0.00,WUHU216HW,2013-03-09 14:42:00,
2013-03-09 05:47:00,29.9,25.4,29.80,SW,225,0.0,1.1,83,0.00,,,0.00,WUHU216HW,2013-03-09 14:47:00,
2013-03-09 05:52:00,29.7,25.2,29.80,SW,225,0.0,0.0,83,0.00,,,0.00,WUHU216HW,2013-03-09 14:52:00,
2013-03-09 05:57:00,29.5,25.0,29.80,SW,225,0.7,0.7,83,0.00,,,0.00,WUHU216HW,2013-03-09 14:57:00,
2013-03-09 06:02:00,29.2,24.7,29.80,SW,225,0.0,0.7,83,0.00,,,0.00,WUHU216HW,2013-03-09 15:02:00,
2013-03-09 06:07:00,29.2,24.7,29.80,SW,225,0.0,0.4,83,0.00,,,0.00,WUHU216HW,2013-03-09 15:07:00,
2013-03-09 06:12:00,28.8,24.3,29.80,ENE,68,0.9,0.9,83,0.00,,,0.00,WUHU216HW,2013-03-09 15:12:00,
2013-03-09 06:18:00,28.6,24.1,29.80,East,90,0.0,0.9,83,0.00,,,0.00,WUHU216HW,2013-03-09 15:18:00,
2013-03-09 06:23:00,28.4,24.0,29.80,SE,135,0.0,0.4,83,0.00,,,0.00,WUHU216HW,2013-03-09 15:23:00,
2013-03-09 06:28:00,28.4,24.0,29.81,SE,135,0.0,0.0,83,0.00,,,0.00,WUHU216HW,2013-03-09 15:28:00,
2013-03-09 06:33:00,28.1,23.6,29.81,SE,135,0.0,0.0,83,0.00,,,0.00,WUHU216HW,2013-03-09 15:33:00,
2013-03-09 06:39:00,28.1,23.6,29.81,ESE,113,1.8,1.8,83,0.00,,,0.00,WUHU216HW,2013-03-09 15:39:00,
2013-03-09 06:44:00,28.1,23.6,29.81,ESE,113,0.7,1.8,83,0.00,,,0.00,WUHU216HW,2013-03-09 15:44:00,
2013-03-09 06:49:00,27.9,23.7,29.81,ENE,68,0.0,1.1,84,0.00,,,0.00,WUHU216HW,2013-03-09 15:49:00,
2013-03-09 06:54:00,27.7,23.5,29.82,North,0,0.0,1.1,84,0.00,,,0.00,WUHU216HW,2013-03-09 15:54:00,
2013-03-09 06:59:00,27.7,23.2,29.82,North,0,0.0,0.0,83,0.00,,,0.00,WUHU216HW,2013-03-09 15:59:00,
2013-03-09 07:04:00,27.7,23.2,29.82,North,0,0.0,0.0,83,0.00,,,0.00,WUHU216HW,2013-03-09 16:04:00,
2013-03-09 07:08:00,27.7,23.5,29.82,North,0,0.0,0.0,84,0.00,,,0.00,WUHU216HW,2013-03-09 16:08:00,
2013-03-09 07:15:00,27.7,23.5,29.82,North,0,0.0,0.0,84,0.00,,,0.00,WUHU216HW,2013-03-09 16:15:00,
2013-03-09 07:20:00,27.5,23.3,29.82,North,0,0.0,0.0,84,0.00,,,0.00,WUHU216HW,2013-03-09 16:20:00,
2013-03-09 07:25:00,27.5,23.3,29.82,North,0,0.0,0.0,84,0.00,,,0.00,WUHU216HW,2013-03-09 16:25:00,
2013-03-09 07:30:00,27.4,23.1,29.83,North,0,0.0,0.0,84,0.00,,,0.00,WUHU216HW,2013-03-09 16:30:00,
2013-03-09 07:35:00,27.4,23.1,29.83,North,0,0.0,0.0,84,0.00,,,0.00,WUHU216HW,2013-03-09 16:35:00,
2013-03-09 07:40:00,27.4,23.1,29.83,North,0,0.0,0.0,84,0.00,,,0.00,WUHU216HW,2013-03-09 16:40:00,
2013-03-09 07:45:00,27.5,23.3,29.83,North,0,0.0,0.0,84,0.00,,,0.00,WUHU216HW,2013-03-09 16:45:00,
2013-03-09 07:50:00,27.5,23.3,29.83,North,0,0.0,0.0,84,0.00,,,0.00,WUHU216HW,2013-03-09 16:50:00,
2013-03-09 07:56:00,27.5,23.3,29.83,North,0,0.0,0.0,84,0.00,,,0.00,WUHU216HW,2013-03-09 16:56:00,
2013-03-09 08:00:00,27.4,23.1,29.83,North,0,0.0,0.0,84,0.00,,,0.00,WUHU216HW,2013-03-09 17:00:00,
2013-03-09 08:06:00,27.5,23.3,29.83,North,0,0.0,0.0,84,0.00,,,0.00,WUHU216HW,2013-03-09 17:06:00,
2013-03-09 08:11:00,27.5,23.3,29.83,SE,135,1.1,1.1,84,0.00,,,0.00,WUHU216HW,2013-03-09 17:11:00,
2013-03-09 08:16:00,27.5,23.3,29.83,ESE,113,0.0,1.8,84,0.00,,,0.00,WUHU216HW,2013-03-09 17:16:00,
2013-03-09 08:21:00,27.7,23.8,29.83,North,0,0.0,1.8,85,0.00,,,0.00,WUHU216HW,2013-03-09 17:21:00,
2013-03-09 08:26:00,27.7,23.8,29.84,WNW,293,2.5,2.5,85,0.00,,,0.00,WUHU216HW,2013-03-09 17:26:00,
2013-03-09 08:32:00,28.4,24.8,29.84,NW,315,2.7,2.7,86,0.00,,,0.00,WUHU216HW,2013-03-09 17:32:00,
2013-03-09 08:37:00,28.4,25.0,29.84,NW,315,1.1,3.6,87,0.00,,,0.00,WUHU216HW,2013-03-09 17:37:00,
2013-03-09 08:42:00,28.6,24.9,29.84,NNW,338,1.6,3.6,86,0.00,,,0.00,WUHU216HW,2013-03-09 17:42:00,
2013-03-09 08:47:00,28.8,25.1,29.84,North,0,0.0,2.0,86,0.00,,,0.00,WUHU216HW,2013-03-09 17:47:00,
2013-03-09 08:52:00,29.2,25.5,29.84,East,90,1.1,1.8,86,0.00,,,0.00,WUHU216HW,2013-03-09 17:52:00,
2013-03-09 08:57:00,29.2,25.5,29.84,East,90,0.4,1.8,86,0.00,,,0.00,WUHU216HW,2013-03-09 17:57:00,
2013-03-09 09:01:00,29.3,25.7,29.84,NE,45,0.7,1.8,86,0.00,,,0.00,WUHU216HW,2013-03-09 18:01:00,
2013-03-09 09:07:00,29.7,26.0,29.85,NNE,23,0.0,1.8,86,0.00,,,0.00,WUHU216HW,2013-03-09 18:07:00,
2013-03-09 09:13:00,29.9,25.9,29.85,SW,225,2.5,2.5,85,0.00,,,0.00,WUHU216HW,2013-03-09 18:13:00,
2013-03-09 09:18:00,29.9,25.9,29.85,SW,225,1.6,2.5,85,0.00,,,0.00,WUHU216HW,2013-03-09 18:18:00,
2013-03-09 09:23:00,29.9,25.9,29.85,South,180,0.4,2.2,85,0.00,,,0.00,WUHU216HW,2013-03-09 18:23:00,
2013-03-09 09:28:00,30.4,26.5,29.85,South,180,0.0,1.3,85,0.00,,,0.00,WUHU216HW,2013-03-09 18:28:00,
2013-03-09 09:33:00,31.0,27.0,29.85,SW,225,1.8,1.8,85,0.00,,,0.00,WUHU216HW,2013-03-09 18:33:00,
2013-03-09 09:38:00,31.0,26.7,29.85,SW,225,2.2,2.2,84,0.00,,,0.00,WUHU216HW,2013-03-09 18:38:00,
2013-03-09 09:43:00,31.0,26.7,29.85,SW,225,1.3,2.2,84,0.00,,,0.00,WUHU216HW,2013-03-09 18:43:00,
2013-03-09 09:48:00,31.3,27.1,29.85,WSW,248,0.4,1.8,84,0.00,,,0.00,WUHU216HW,2013-03-09 18:48:00,
2013-03-09 09:53:00,31.9,27.6,29.86,SW,225,2.0,2.0,84,0.00,,,0.00,WUHU216HW,2013-03-09 18:53:00,
2013-03-09 09:59:00,32.2,27.6,29.86,WSW,248,0.4,2.0,83,0.00,,,0.00,WUHU216HW,2013-03-09 18:59:00,
2013-03-09 10:04:00,32.6,28.0,29.86,WNW,293,0.9,1.1,83,0.00,,,0.00,WUHU216HW,2013-03-09 19:04:00,
2013-03-09 10:09:00,32.8,28.2,29.86,WNW,293,0.4,0.9,83,0.00,,,0.00,WUHU216HW,2013-03-09 19:09:00,
2013-03-09 10:14:00,33.1,28.2,29.87,West,270,1.1,1.1,82,0.00,,,0.00,WUHU216HW,2013-03-09 19:14:00,
2013-03-09 10:19:00,33.3,28.4,29.87,West,270,1.8,2.0,82,0.00,,,0.00,WUHU216HW,2013-03-09 19:19:00,
2013-03-09 10:24:00,33.5,28.5,29.87,West,270,1.1,2.0,82,0.00,,,0.00,WUHU216HW,2013-03-09 19:24:00,
2013-03-09 10:29:00,33.7,28.7,29.87,WSW,248,1.8,1.8,82,0.00,,,0.00,WUHU216HW,2013-03-09 19:29:00,
2013-03-09 10:35:00,34.0,29.0,29.88,WSW,248,1.1,1.8,82,0.00,,,0.00,WUHU216HW,2013-03-09 19:35:00,
2013-03-09 10:40:00,34.2,29.2,29.88,WSW,248,0.0,1.1,82,0.00,,,0.00,WUHU216HW,2013-03-09 19:40:00,
2013-03-09 10:45:00,34.4,29.3,29.88,WSW,248,1.1,1.3,82,0.00,,,0.00,WUHU216HW,2013-03-09 19:45:00,
2013-03-09 10:50:00,34.6,29.3,29.88,West,270,0.4,1.3,81,0.00,,,0.00,WUHU216HW,2013-03-09 19:50:00,
2013-03-09 10:55:00,34.9,29.6,29.88,WSW,248,0.0,0.9,81,0.00,,,0.00,WUHU216HW,2013-03-09 19:55:00,
2013-03-09 11:01:00,35.3,30.0,29.88,WNW,293,0.0,0.9,81,0.00,,,0.00,WUHU216HW,2013-03-09 20:01:00,
2013-03-09 11:06:00,35.6,30.1,29.88,WNW,293,0.0,0.0,80,0.00,,,0.00,WUHU216HW,2013-03-09 20:06:00,
2013-03-09 11:11:00,36.0,30.4,29.88,NNW,338,0.0,0.0,80,0.00,,,0.00,WUHU216HW,2013-03-09 20:11:00,
2013-03-09 11:16:00,37.1,31.5,29.89,NW,315,0.0,0.0,80,0.00,,,0.00,WUHU216HW,2013-03-09 20:16:00,
2013-03-09 11:21:00,37.3,31.1,29.89,WSW,248,2.9,3.1,78,0.00,,,0.00,WUHU216HW,2013-03-09 20:21:00,
2013-03-09 11:26:00,37.4,31.2,29.89,WSW,248,1.1,3.1,78,0.00,,,0.00,WUHU216HW,2013-03-09 20:26:00,
2013-03-09 11:31:00,37.8,30.9,29.90,NNW,338,1.3,2.7,76,0.00,,,0.00,WUHU216HW,2013-03-09 20:31:00,
2013-03-09 11:36:00,38.5,32.3,29.90,ESE,113,1.1,1.3,78,0.00,,,0.00,WUHU216HW,2013-03-09 20:36:00,
2013-03-09 11:41:00,39.4,32.8,29.90,NNW,338,1.1,1.3,77,0.00,,,0.00,WUHU216HW,2013-03-09 20:41:00,
2013-03-09 11:46:00,40.0,32.7,29.90,South,180,1.1,1.8,75,0.00,,,0.00,WUHU216HW,2013-03-09 20:46:00,
2013-03-09 11:52:00,40.7,33.3,29.90,WSW,248,1.1,3.1,75,0.00,,,0.00,WUHU216HW,2013-03-09 20:52:00,
2013-03-09 11:57:00,41.0,33.0,29.90,WSW,248,0.2,2.0,73,0.00,,,0.00,WUHU216HW,2013-03-09 20:57:00,
2013-03-09 12:02:00,41.2,33.2,29.90,NNE,23,0.4,2.0,73,0.00,,,0.00,WUHU216HW,2013-03-09 21:02:00,
2013-03-09 12:07:00,42.1,33.8,29.90,ENE,68,0.9,2.9,72,0.00,,,0.00,WUHU216HW,2013-03-09 21:07:00,
2013-03-09 12:12:00,42.7,34.0,29.91,ESE,113,0.4,2.9,71,0.00,,,0.00,WUHU216HW,2013-03-09 21:12:00,
2013-03-09 12:18:00,43.2,34.5,29.91,East,90,0.4,0.9,71,0.00,,,0.00,WUHU216HW,2013-03-09 21:18:00,
2013-03-09 12:23:00,43.4,34.7,29.91,SSE,158,1.8,2.9,71,0.00,,,0.00,WUHU216HW,2013-03-09 21:23:00,
2013-03-09 12:28:00,43.9,34.8,29.91,NE,45,0.7,2.9,70,0.00,,,0.00,WUHU216HW,2013-03-09 21:28:00,
2013-03-09 12:33:00,43.6,33.3,29.91,West,270,1.6,2.2,67,0.00,,,0.00,WUHU216HW,2013-03-09 21:33:00,
2013-03-09 12:38:00,42.8,32.7,29.91,West,270,2.0,4.5,67,0.00,,,0.00,WUHU216HW,2013-03-09 21:38:00,
2013-03-09 12:43:00,42.5,32.0,29.91,West,270,1.8,4.5,66,0.00,,,0.00,WUHU216HW,2013-03-09 21:43:00,
2013-03-09 12:48:00,42.7,32.0,29.91,NNW,338,0.7,3.6,66,0.00,,,0.00,WUHU216HW,2013-03-09 21:48:00,
2013-03-09 12:53:00,42.7,32.0,29.92,WSW,248,2.5,3.6,66,0.00,,,0.00,WUHU216HW,2013-03-09 21:53:00,
2013-03-09 12:58:00,42.8,32.2,29.92,West,270,0.0,2.7,66,0.00,,,0.00,WUHU216HW,2013-03-09 21:58:00,
2013-03-09 13:04:00,43.6,33.3,29.92,WSW,248,1.6,2.7,67,0.00,,,0.00,WUHU216HW,2013-03-09 22:04:00,
2013-03-09 13:09:00,43.6,32.6,29.92,WSW,248,1.8,2.9,65,0.00,,,0.00,WUHU216HW,2013-03-09 22:09:00,
2013-03-09 13:14:00,43.7,32.8,29.92,WSW,248,2.5,2.9,65,0.00,,,0.00,WUHU216HW,2013-03-09 22:14:00,
2013-03-09 13:19:00,43.9,32.5,29.92,West,270,0.4,2.5,64,0.00,,,0.00,WUHU216HW,2013-03-09 22:19:00,
2013-03-09 13:24:00,44.6,33.6,29.92,SW,225,0.7,1.8,65,0.00,,,0.00,WUHU216HW,2013-03-09 22:24:00,
2013-03-09 13:29:00,44.1,31.1,29.92,North,0,1.3,2.2,60,0.00,,,0.00,WUHU216HW,2013-03-09 22:29:00,
2013-03-09 13:34:00,44.1,32.3,29.92,NNW,338,0.9,2.2,63,0.00,,,0.00,WUHU216HW,2013-03-09 22:34:00,
2013-03-09 13:39:00,43.9,30.1,29.92,NW,315,3.4,3.4,58,0.00,,,0.00,WUHU216HW,2013-03-09 22:39:00,
2013-03-09 13:45:00,43.9,31.0,29.92,WSW,248,0.9,3.4,60,0.00,,,0.00,WUHU216HW,2013-03-09 22:45:00,
2013-03-09 13:50:00,44.3,32.0,29.92,West,270,0.2,2.9,62,0.00,,,0.00,WUHU216HW,2013-03-09 22:50:00,
2013-03-09 13:55:00,44.3,31.7,29.92,West,270,1.1,2.5,61,0.00,,,0.00,WUHU216HW,2013-03-09 22:55:00,
2013-03-09 14:00:00,43.7,31.1,29.92,WSW,248,5.4,6.3,61,0.00,,,0.00,WUHU216HW,2013-03-09 23:00:00,
2013-03-09 14:05:00,43.2,30.6,29.92,WNW,293,3.4,6.3,61,0.00,,,0.00,WUHU216HW,2013-03-09 23:05:00,
2013-03-09 14:11:00,42.8,30.2,29.92,NNW,338,4.0,5.1,61,0.00,,,0.00,WUHU216HW,2013-03-09 23:11:00,
2013-03-09 14:16:00,42.8,30.2,29.92,WNW,293,2.9,4.9,61,0.00,,,0.00,WUHU216HW,2013-03-09 23:16:00,
2013-03-09 14:21:00,42.7,30.2,29.93,WNW,293,2.7,4.9,61,0.00,,,0.00,WUHU216HW,2013-03-09 23:21:00,
2013-03-09 14:26:00,42.8,30.7,29.93,West,270,2.7,5.1,62,0.00,,,0.00,WUHU216HW,2013-03-09 23:26:00,
2013-03-09 14:31:00,42.7,30.5,29.93,WNW,293,4.5,5.1,62,0.00,,,0.00,WUHU216HW,2013-03-09 23:31:00,
2013-03-09 14:36:00,42.5,30.7,29.93,NNW,338,1.3,4.7,63,0.00,,,0.00,WUHU216HW,2013-03-09 23:36:00,
2013-03-09 14:41:00,42.5,30.3,29.93,WNW,293,2.5,6.3,62,0.00,,,0.00,WUHU216HW,2013-03-09 23:41:00,
2013-03-09 14:46:00,42.5,30.3,29.93,WNW,293,2.7,6.3,62,0.00,,,0.00,WUHU216HW,2013-03-09 23:46:00,
2013-03-09 14:51:00,42.5,30.3,29.93,WSW,248,2.9,4.5,62,0.00,,,0.00,WUHU216HW,2013-03-09 23:51:00,
2013-03-09 14:56:00,42.5,30.3,29.93,WSW,248,4.3,5.6,62,0.00,,,0.00,WUHU216HW,2013-03-09 23:56:00,
2013-03-09 15:02:00,42.1,30.0,29.93,WNW,293,2.2,6.3,62,0.00,,,0.00,WUHU216HW,2013-03-10 00:02:00,
2013-03-09 15:07:00,42.1,30.4,29.93,WSW,248,1.6,4.9,63,0.00,,,0.00,WUHU216HW,2013-03-10 00:07:00,
2013-03-09 15:12:00,42.3,30.6,29.93,WSW,248,2.5,4.5,63,0.00,,,0.00,WUHU216HW,2013-03-10 00:12:00,
2013-03-09 15:17:00,42.1,30.4,29.93,WNW,293,4.7,4.7,63,0.00,,,0.00,WUHU216HW,2013-03-10 00:17:00,
2013-03-09 15:22:00,41.8,30.4,29.93,WNW,293,4.3,4.7,64,0.00,,,0.00,WUHU216HW,2013-03-10 00:22:00,
2013-03-09 15:27:00,41.4,30.2,29.94,North,0,4.3,5.1,64,0.00,,,0.00,WUHU216HW,2013-03-10 00:27:00,
2013-03-09 15:33:00,41.4,30.5,29.94,WNW,293,3.4,5.1,65,0.00,,,0.00,WUHU216HW,2013-03-10 00:33:00,
2013-03-09 15:38:00,41.6,30.7,29.94,NNW,338,1.8,3.8,65,0.00,,,0.00,WUHU216HW,2013-03-10 00:38:00,
2013-03-09 15:43:00,41.8,31.2,29.95,NNW,338,2.9,3.8,66,0.00,,,0.00,WUHU216HW,2013-03-10 00:43:00,
2013-03-09 15:48:00,41.4,31.2,29.95,WNW,293,2.9,3.6,67,0.00,,,0.00,WUHU216HW,2013-03-10 00:48:00,
2013-03-09 15:53:00,40.7,31.0,29.95,NW,315,2.9,3.6,68,0.00,,,0.00,WUHU216HW,2013-03-10 00:53:00,
2013-03-09 15:58:00,40.5,31.9,29.95,NW,315,3.4,4.7,71,0.00,,,0.00,WUHU216HW,2013-03-10 00:58:00,
2013-03-09 16:04:00,40.5,31.9,29.95,West,270,1.8,4.7,71,0.00,,,0.00,WUHU216HW,2013-03-10 01:04:00,
2013-03-09 16:09:00,40.5,31.5,29.96,NNW,338,1.1,3.8,70,0.00,,,0.00,WUHU216HW,2013-03-10 01:09:00,
2013-03-09 16:14:00,40.5,31.9,29.96,NW,315,2.2,2.7,71,0.00,,,0.00,WUHU216HW,2013-03-10 01:14:00,
2013-03-09 16:19:00,40.3,31.7,29.96,NE,45,3.1,3.1,71,0.00,,,0.00,WUHU216HW,2013-03-10 01:19:00,
2013-03-09 16:24:00,40.7,32.1,29.96,NNE,23,4.9,4.9,71,0.00,,,0.00,WUHU216HW,2013-03-10 01:24:00,
2013-03-09 16:29:00,40.7,32.1,29.96,NE,45,4.0,4.9,71,0.00,,,0.00,WUHU216HW,2013-03-10 01:29:00,
2013-03-09 16:34:00,40.3,31.7,29.96,ENE,68,3.6,5.6,71,0.00,,,0.00,WUHU216HW,2013-03-10 01:34:00,
2013-03-09 16:39:00,40.1,31.8,29.97,NNE,23,3.4,5.6,72,0.00,,,0.00,WUHU216HW,2013-03-10 01:39:00,
2013-03-09 16:44:00,40.0,31.6,29.97,NNE,23,2.7,4.5,72,0.00,,,0.00,WUHU216HW,2013-03-10 01:44:00,
2013-03-09 16:49:00,40.0,32.0,29.97,NE,45,1.8,4.5,73,0.00,,,0.00,WUHU216HW,2013-03-10 01:49:00,
2013-03-09 16:54:00,40.0,32.0,29.97,NNE,23,1.1,2.7,73,0.00,,,0.00,WUHU216HW,2013-03-10 01:54:00,
2013-03-09 17:00:00,39.8,32.1,29.97,North,0,2.2,2.2,74,0.00,,,0.00,WUHU216HW,2013-03-10 02:00:00,
2013-03-09 17:05:00,39.2,31.6,29.98,NNE,23,1.8,2.2,74,0.00,,,0.00,WUHU216HW,2013-03-10 02:05:00,
2013-03-09 17:10:00,38.7,31.4,29.98,NNW,338,1.1,1.8,75,0.00,,,0.00,WUHU216HW,2013-03-10 02:10:00,
2013-03-09 17:15:00,38.3,31.4,29.98,North,0,0.7,1.3,76,0.00,,,0.00,WUHU216HW,2013-03-10 02:15:00,
2013-03-09 17:21:00,38.0,31.4,29.98,NNE,23,1.1,1.8,77,0.00,,,0.00,WUHU216HW,2013-03-10 02:21:00,
2013-03-09 17:26:00,38.2,31.6,29.98,ENE,68,1.1,2.7,77,0.00,,,0.00,WUHU216HW,2013-03-10 02:26:00,
2013-03-09 17:31:00,38.3,31.4,29.98,NE,45,0.4,2.7,76,0.02,,,0.02,WUHU216HW,2013-03-10 02:31:00,
2013-03-09 17:36:00,38.5,32.0,29.98,NE,45,1.6,2.2,77,0.02,,,0.02,WUHU216HW,2013-03-10 02:36:00,
2013-03-09 17:41:00,38.3,31.4,29.98,NE,45,1.6,1.6,76,0.02,,,0.02,WUHU216HW,2013-03-10 02:41:00,
2013-03-09 17:46:00,38.3,31.4,29.98,NE,45,1.3,2.0,76,0.02,,,0.02,WUHU216HW,2013-03-10 02:46:00,
2013-03-09 17:51:00,38.3,31.4,29.99,ENE,68,0.4,2.0,76,0.02,,,0.02,WUHU216HW,2013-03-10 02:51:00,
2013-03-09 17:56:00,38.3,31.4,29.99,NE,45,0.0,1.1,76,0.02,,,0.02,WUHU216HW,2013-03-10 02:56:00,
2013-03-09 18:02:00,38.2,31.2,29.99,ENE,68,0.7,0.7,76,0.02,,,0.02,WUHU216HW,2013-03-10 03:02:00,
2013-03-09 18:07:00,38.2,31.2,29.99,ENE,68,0.2,0.7,76,0.02,,,0.02,WUHU216HW,2013-03-10 03:07:00,
2013-03-09 18:12:00,38.0,31.4,29.99,East,90,1.1,1.1,77,0.02,,,0.02,WUHU216HW,2013-03-10 03:12:00,
2013-03-09 18:17:00,37.8,31.2,29.99,NE,45,0.4,1.1,77,0.02,,,0.02,WUHU216HW,2013-03-10 03:17:00,
2013-03-09 18:22:00,37.6,31.1,29.99,East,90,0.0,1.1,77,0.02,,,0.02,WUHU216HW,2013-03-10 03:22:00,
2013-03-09 18:27:00,37.4,30.9,29.99,ESE,113,0.0,0.4,77,0.00,,,0.02,WUHU216HW,2013-03-10 03:27:00,
2013-03-09 18:32:00,37.1,30.9,30.00,SSE,158,0.4,0.4,78,0.00,,,0.02,WUHU216HW,2013-03-10 03:32:00,
2013-03-09 18:37:00,36.9,30.7,30.00,South,180,0.0,0.7,78,0.00,,,0.02,WUHU216HW,2013-03-10 03:37:00,
2013-03-09 18:41:00,36.7,30.5,30.00,South,180,0.0,0.4,78,0.00,,,0.02,WUHU216HW,2013-03-10 03:41:00,
2013-03-09 18:48:00,36.5,30.6,30.00,South,180,0.0,0.0,79,0.00,,,0.02,WUHU216HW,2013-03-10 03:48:00,
2013-03-09 18:53:00,36.5,30.6,30.00,WNW,293,0.0,0.0,79,0.00,,,0.02,WUHU216HW,2013-03-10 03:53:00,
2013-03-09 18:58:00,36.4,30.8,30.00,WNW,293,0.0,0.0,80,0.00,,,0.02,WUHU216HW,2013-03-10 03:58:00,
2013-03-09 19:03:00,36.4,30.8,30.01,WNW,293,0.0,0.0,80,0.00,,,0.02,WUHU216HW,2013-03-10 04:03:00,
2013-03-09 19:08:00,36.0,30.4,30.01,WNW,293,0.0,0.0,80,0.00,,,0.02,WUHU216HW,2013-03-10 04:08:00,
2013-03-09 19:14:00,35.8,30.2,30.01,WNW,293,0.0,0.0,80,0.00,,,0.02,WUHU216HW,2013-03-10 04:14:00,
2013-03-09 19:19:00,35.6,30.1,30.02,WNW,293,0.0,0.0,80,0.00,,,0.02,WUHU216HW,2013-03-10 04:19:00,
2013-03-09 19:24:00,35.6,30.1,30.02,ESE,113,0.0,0.0,80,0.00,,,0.02,WUHU216HW,2013-03-10 04:24:00,
2013-03-09 19:29:00,35.5,29.9,30.02,ESE,113,1.1,1.1,80,0.00,,,0.02,WUHU216HW,2013-03-10 04:29:00,
2013-03-09 19:34:00,35.3,29.7,30.02,ESE,113,1.1,1.1,80,0.00,,,0.02,WUHU216HW,2013-03-10 04:34:00,
2013-03-09 19:39:00,35.1,29.5,30.02,SE,135,0.7,1.1,80,0.00,,,0.02,WUHU216HW,2013-03-10 04:39:00,
2013-03-09 19:44:00,34.9,29.3,30.02,SE,135,1.1,1.8,80,0.00,,,0.02,WUHU216HW,2013-03-10 04:44:00,
2013-03-09 19:49:00,34.9,29.6,30.02,SE,135,1.6,1.8,81,0.00,,,0.02,WUHU216HW,2013-03-10 04:49:00,
2013-03-09 19:54:00,34.9,29.6,30.03,SE,135,1.8,2.0,81,0.00,,,0.02,WUHU216HW,2013-03-10 04:54:00,
2013-03-09 19:59:00,34.7,29.4,30.03,SE,135,1.6,2.0,81,0.00,,,0.02,WUHU216HW,2013-03-10 04:59:00,
2013-03-09 20:05:00,34.7,29.4,30.03,SE,135,1.6,2.5,81,0.00,,,0.02,WUHU216HW,2013-03-10 05:05:00,
2013-03-09 20:10:00,34.6,29.3,30.03,ESE,113,1.1,2.5,81,0.00,,,0.02,WUHU216HW,2013-03-10 05:10:00,
2013-03-09 20:15:00,34.6,29.5,30.04,SE,135,1.1,2.5,82,0.00,,,0.02,WUHU216HW,2013-03-10 05:15:00,
2013-03-09 20:20:00,34.4,29.3,30.04,SE,135,1.1,2.5,82,0.00,,,0.02,WUHU216HW,2013-03-10 05:20:00,
2013-03-09 20:25:00,34.2,29.2,30.04,ESE,113,1.8,1.8,82,0.00,,,0.02,WUHU216HW,2013-03-10 05:25:00,
2013-03-09 20:31:00,34.2,29.2,30.04,ESE,113,1.1,2.0,82,0.00,,,0.02,WUHU216HW,2013-03-10 05:31:00,
2013-03-09 20:36:00,34.0,29.0,30.04,ESE,113,1.8,2.0,82,0.00,,,0.02,WUHU216HW,2013-03-10 05:36:00,
2013-03-09 20:41:00,34.0,29.0,30.04,ESE,113,2.5,2.5,82,0.00,,,0.02,WUHU216HW,2013-03-10 05:41:00,
2013-03-09 20:46:00,33.8,28.8,30.04,ESE,113,1.8,2.5,82,0.00,,,0.02,WUHU216HW,2013-03-10 05:46:00,
2013-03-09 20:51:00,33.7,28.7,30.04,ESE,113,1.8,2.5,82,0.00,,,0.02,WUHU216HW,2013-03-10 05:51:00,
2013-03-09 20:56:00,33.7,28.7,30.04,ESE,113,1.1,2.5,82,0.00,,,0.02,WUHU216HW,2013-03-10 05:56:00,
2013-03-09 21:01:00,33.5,28.5,30.04,SE,135,1.3,2.5,82,0.00,,,0.02,WUHU216HW,2013-03-10 06:01:00,
2013-03-09 21:07:00,33.3,28.4,30.04,SE,135,1.3,1.8,82,0.00,,,0.02,WUHU216HW,2013-03-10 06:07:00,
2013-03-09 21:12:00,32.9,28.0,30.04,ESE,113,1.8,1.8,82,0.00,,,0.02,WUHU216HW,2013-03-10 06:12:00,
2013-03-09 21:16:00,32.8,28.2,30.04,SE,135,0.7,1.8,83,0.00,,,0.02,WUHU216HW,2013-03-10 06:16:00,
2013-03-09 21:22:00,32.4,27.5,30.04,ESE,113,1.6,1.8,82,0.00,,,0.02,WUHU216HW,2013-03-10 06:22:00,
2013-03-09 21:27:00,32.0,27.6,30.04,ESE,113,1.8,1.8,83,0.00,,,0.02,WUHU216HW,2013-03-10 06:27:00,
2013-03-09 21:32:00,31.7,27.2,30.04,ESE,113,2.2,2.2,83,0.00,,,0.02,WUHU216HW,2013-03-10 06:32:00,
2013-03-09 21:37:00,31.5,27.0,30.04,SE,135,1.3,2.2,83,0.00,,,0.02,WUHU216HW,2013-03-10 06:37:00,
2013-03-09 21:42:00,31.3,26.8,30.05,SE,135,0.4,2.2,83,0.00,,,0.02,WUHU216HW,2013-03-10 06:42:00,
2013-03-09 21:47:00,31.3,26.8,30.05,SSE,158,0.9,1.1,83,0.00,,,0.02,WUHU216HW,2013-03-10 06:47:00,
2013-03-09 21:52:00,31.3,27.1,30.05,ESE,113,0.7,1.3,84,0.00,,,0.02,WUHU216HW,2013-03-10 06:52:00,
2013-03-09 21:58:00,31.1,26.9,30.05,ENE,68,1.1,1.3,84,0.00,,,0.02,WUHU216HW,2013-03-10 06:58:00,
2013-03-09 22:03:00,31.0,26.7,30.05,East,90,0.9,1.3,84,0.00,,,0.02,WUHU216HW,2013-03-10 07:03:00,
2013-03-09 22:08:00,30.8,26.6,30.05,ESE,113,1.1,1.8,84,0.00,,,0.02,WUHU216HW,2013-03-10 07:08:00,
2013-03-09 22:13:00,30.6,26.4,30.05,SE,135,2.5,2.9,84,0.00,,,0.02,WUHU216HW,2013-03-10 07:13:00,
2013-03-09 22:18:00,30.6,26.4,30.06,ESE,113,1.8,2.9,84,0.00,,,0.02,WUHU216HW,2013-03-10 07:18:00,
2013-03-09 22:24:00,30.4,26.5,30.06,ESE,113,1.8,3.4,85,0.00,,,0.02,WUHU216HW,2013-03-10 07:24:00,
2013-03-09 22:29:00,30.4,26.5,30.06,SE,135,1.1,3.4,85,0.00,,,0.02,WUHU216HW,2013-03-10 07:29:00,
2013-03-09 22:34:00,30.2,26.3,30.06,SSE,158,1.1,3.4,85,0.00,,,0.02,WUHU216HW,2013-03-10 07:34:00,
2013-03-09 22:39:00,30.2,26.3,30.06,ESE,113,1.8,3.4,85,0.00,,,0.02,WUHU216HW,2013-03-10 07:39:00,
2013-03-09 22:44:00,30.1,26.1,30.06,SE,135,1.6,2.2,85,0.00,,,0.02,WUHU216HW,2013-03-10 07:44:00,
2013-03-09 22:49:00,30.2,26.3,30.06,SW,225,0.9,2.2,85,0.00,,,0.02,WUHU216HW,2013-03-10 07:49:00,
2013-03-09 22:54:00,30.6,26.9,30.06,West,270,1.1,2.2,86,0.00,,,0.02,WUHU216HW,2013-03-10 07:54:00,
2013-03-09 22:59:00,30.8,27.1,30.07,South,180,0.7,2.2,86,0.00,,,0.02,WUHU216HW,2013-03-10 07:59:00,
2013-03-09 23:04:00,30.8,27.1,30.07,SSE,158,0.4,1.8,86,0.00,,,0.02,WUHU216HW,2013-03-10 08:04:00,
2013-03-09 23:10:00,31.0,27.3,30.07,South,180,0.0,0.9,86,0.00,,,0.02,WUHU216HW,2013-03-10 08:10:00,
2013-03-09 23:15:00,31.0,27.3,30.07,South,180,0.0,0.2,86,0.00,,,0.02,WUHU216HW,2013-03-10 08:15:00,
2013-03-09 23:20:00,31.0,27.3,30.07,SW,225,1.1,1.1,86,0.00,,,0.02,WUHU216HW,2013-03-10 08:20:00,
2013-03-09 23:25:00,31.0,27.5,30.07,South,180,2.5,2.5,87,0.00,,,0.02,WUHU216HW,2013-03-10 08:25:00,
2013-03-09 23:30:00,31.1,27.7,30.07,South,180,1.1,2.5,87,0.00,,,0.02,WUHU216HW,2013-03-10 08:30:00,
2013-03-09 23:35:00,31.3,27.9,30.07,North,0,0.0,2.5,87,0.00,,,0.02,WUHU216HW,2013-03-10 08:35:00,
2013-03-09 23:40:00,31.3,27.9,30.07,North,0,0.0,1.1,87,0.00,,,0.02,WUHU216HW,2013-03-10 08:40:00,
2013-03-09 23:46:00,31.1,27.7,30.07,North,0,0.0,0.0,87,0.00,,,0.02,WUHU216HW,2013-03-10 08:46:00,
2013-03-09 23:51:00,31.0,27.5,30.07,North,0,0.0,0.0,87,0.00,,,0.02,WUHU216HW,2013-03-10 08:51:00,
2013-03-09 23:56:00,31.0,27.5,30.07,North,0,0.0,0.0,87,0.00,,,0.02,WUHU216HW,2013-03-10 08:56:00,